Akebono — JG5644 — position and weather

sailwx.info

Track history (hours):
 
Tides and Currents Weather Stations Pressure Air Temp Water Temp Dewpoint Dewpoint Depression Visibility Wind Speed Wind Dir Waves Ship Positions

Akebono

Last reported at 2017-May-27 08:18 UTC. Time now 2017-May-27 15:46 UTC.
Position N 35°33' E 139°58'.

Length 33 m; draft 4.4 m.

Type: Tug. MMSI: 431000233.

Date/timePositionNaut miles runAvg speedWind from/ knotsBaromVisibWave heightAir tempDewpointWater temp
2017-May-27 08:18N 35°33' E 139°58'2 0.1
2017-May-26 07:20N 35°32' E 139°57'1 4.0
2017-May-26 07:00N 35°31' E 139°56'0 0.0
2017-May-26 06:26N 35°31' E 139°56'0 0.1
2017-May-26 05:59N 35°31' E 139°56'0 0.4
2017-May-26 05:30N 35°31' E 139°56'1 2.8
2017-May-26 05:00N 35°30' E 139°54'1 1.9
2017-May-26 04:30N 35°29' E 139°53'3 6.5
2017-May-26 04:00N 35°31' E 139°56'7 1.5
2017-May-25 23:09N 35°33' E 140°05'0 0.1
2017-May-25 22:28N 35°33' E 140°05'7 0.3
2017-May-25 01:44N 35°29' E 139°57'1 2.3
2017-May-25 01:28N 35°29' E 139°58'10 0.5
2017-May-24 04:07N 35°35' E 140°06'912.0
2017-May-24 03:20N 35°29' E 139°58'2 0.9
2017-May-24 00:51N 35°30' E 139°56'0 0.7
2017-May-24 00:28N 35°30' E 139°56'1 2.6
2017-May-23 23:59N 35°29' E 139°57'4 2.5
2017-May-23 22:17N 35°31' E 140°01'0 0.0
2017-May-23 02:47N 35°31' E 140°01'3 0.1
2017-May-22 01:57N 35°29' E 139°59'1 1.8
2017-May-22 01:25N 35°29' E 140°00'2 0.8
2017-May-21 22:27N 35°27' E 139°58'2 4.6
2017-May-21 22:00N 35°29' E 139°57'2 3.3
2017-May-21 21:27N 35°30' E 139°55'1 2.6
2017-May-21 20:59N 35°31' E 139°57'10 0.8
2017-May-21 09:06N 35°36' E 140°07'10 3.9
2017-May-21 06:39N 35°32' E 139°56'1 4.4
2017-May-21 06:25N 35°31' E 139°55'1 1.7
2017-May-21 06:00N 35°31' E 139°54'0 0.8
2017-May-21 05:30N 35°31' E 139°55'0 0.0
2017-May-21 05:00N 35°31' E 139°55'0 0.0
2017-May-21 04:30N 35°31' E 139°55'0 0.0
2017-May-21 04:00N 35°31' E 139°55'0 0.0
2017-May-21 03:30N 35°31' E 139°55'0 0.0
2017-May-21 03:00N 35°31' E 139°55'1 2.2
2017-May-21 02:30N 35°30' E 139°56'4 5.0
2017-May-21 01:44N 35°29' E 140°00'0 0.0
2017-May-21 01:27N 35°29' E 140°00'1 1.4
2017-May-21 00:59N 35°29' E 139°60'4 7.5
2017-May-21 00:29N 35°32' E 139°56'8 0.2
2017-May-19 06:22N 35°36' E 140°06'9 3.2
2017-May-19 03:26N 35°29' E 139°57'1 1.0
2017-May-19 02:45N 35°28' E 139°58'0 1.5
2017-May-19 02:28N 35°29' E 139°58'  
Track history (hours):
 
Tides and Currents Weather Stations Pressure Air Temp Water Temp Dewpoint Dewpoint Depression Visibility Wind Speed Wind Dir Waves Ship Positions

Akebono

Last reported at 2017-May-27 08:18 UTC. Time now 2017-May-27 15:46 UTC.
Position N 35°33' E 139°58'.

Length 33 m; draft 4.4 m.

Type: Tug. MMSI: 431000233.

Date/timePositionNaut miles runAvg speedWind from/ knotsBaromVisibWave heightAir tempDewpointWater temp
2017-May-27 08:18N 35°33' E 139°58'2 0.1
2017-May-26 07:20N 35°32' E 139°57'1 4.0
2017-May-26 07:00N 35°31' E 139°56'0 0.0
2017-May-26 06:26N 35°31' E 139°56'0 0.1
2017-May-26 05:59N 35°31' E 139°56'0 0.4
2017-May-26 05:30N 35°31' E 139°56'1 2.8
2017-May-26 05:00N 35°30' E 139°54'1 1.9
2017-May-26 04:30N 35°29' E 139°53'3 6.5
2017-May-26 04:00N 35°31' E 139°56'7 1.5
2017-May-25 23:09N 35°33' E 140°05'0 0.1
2017-May-25 22:28N 35°33' E 140°05'7 0.3
2017-May-25 01:44N 35°29' E 139°57'1 2.3
2017-May-25 01:28N 35°29' E 139°58'10 0.5
2017-May-24 04:07N 35°35' E 140°06'912.0
2017-May-24 03:20N 35°29' E 139°58'2 0.9
2017-May-24 00:51N 35°30' E 139°56'0 0.7
2017-May-24 00:28N 35°30' E 139°56'1 2.6
2017-May-23 23:59N 35°29' E 139°57'4 2.5
2017-May-23 22:17N 35°31' E 140°01'0 0.0
2017-May-23 02:47N 35°31' E 140°01'3 0.1
2017-May-22 01:57N 35°29' E 139°59'1 1.8
2017-May-22 01:25N 35°29' E 140°00'2 0.8
2017-May-21 22:27N 35°27' E 139°58'2 4.6
2017-May-21 22:00N 35°29' E 139°57'2 3.3
2017-May-21 21:27N 35°30' E 139°55'1 2.6
2017-May-21 20:59N 35°31' E 139°57'10 0.8
2017-May-21 09:06N 35°36' E 140°07'10 3.9
2017-May-21 06:39N 35°32' E 139°56'1 4.4
2017-May-21 06:25N 35°31' E 139°55'1 1.7
2017-May-21 06:00N 35°31' E 139°54'0 0.8
2017-May-21 05:30N 35°31' E 139°55'0 0.0
2017-May-21 05:00N 35°31' E 139°55'0 0.0
2017-May-21 04:30N 35°31' E 139°55'0 0.0
2017-May-21 04:00N 35°31' E 139°55'0 0.0
2017-May-21 03:30N 35°31' E 139°55'0 0.0
2017-May-21 03:00N 35°31' E 139°55'1 2.2
2017-May-21 02:30N 35°30' E 139°56'4 5.0
2017-May-21 01:44N 35°29' E 140°00'0 0.0
2017-May-21 01:27N 35°29' E 140°00'1 1.4
2017-May-21 00:59N 35°29' E 139°60'4 7.5
2017-May-21 00:29N 35°32' E 139°56'8 0.2
2017-May-19 06:22N 35°36' E 140°06'9 3.2
2017-May-19 03:26N 35°29' E 139°57'1 1.0
2017-May-19 02:45N 35°28' E 139°58'0 1.5
2017-May-19 02:28N 35°29' E 139°58'  

Dump ship's entire track history